createdAt,value
2023-01-13T00:00:16.394Z,8.60
2023-01-13T00:02:43.590Z,8.60
2023-01-13T00:05:11.357Z,8.60
2023-01-13T00:07:40.327Z,8.50
2023-01-13T00:10:11.548Z,8.50
2023-01-13T00:12:42.365Z,8.50
2023-01-13T00:15:11.203Z,8.50
2023-01-13T00:17:41.282Z,8.50
2023-01-13T00:20:10.109Z,8.50
2023-01-13T00:22:41.296Z,8.50
2023-01-13T00:25:08.749Z,8.50
2023-01-13T00:27:36.023Z,8.40
2023-01-13T00:30:03.907Z,8.50
2023-01-13T00:32:30.919Z,8.50
2023-01-13T00:34:59.041Z,8.50
2023-01-13T00:37:26.650Z,8.40
2023-01-13T00:39:53.983Z,8.40
2023-01-13T00:42:39.650Z,8.40
2023-01-13T00:45:07.088Z,8.40
2023-01-13T00:47:34.234Z,8.40
2023-01-13T00:50:01.177Z,8.40
2023-01-13T00:52:28.277Z,8.40
2023-01-13T00:54:55.233Z,8.40
2023-01-13T00:57:22.167Z,8.40
2023-01-13T00:59:49.733Z,8.40
2023-01-13T01:02:16.843Z,8.40
2023-01-13T01:04:43.899Z,8.40
2023-01-13T01:07:10.898Z,8.40
2023-01-13T01:09:39.497Z,8.40
2023-01-13T01:12:06.751Z,8.40
2023-01-13T01:14:33.927Z,8.40
2023-01-13T01:17:00.919Z,8.30
2023-01-13T01:19:27.963Z,8.30
2023-01-13T01:21:55.098Z,8.30
2023-01-13T01:24:22.192Z,8.30
2023-01-13T01:26:49.222Z,8.30
2023-01-13T01:29:16.432Z,8.30
2023-01-13T01:31:43.820Z,8.30
2023-01-13T01:34:10.980Z,8.20
2023-01-13T01:36:39.282Z,8.30
2023-01-13T01:39:09.726Z,8.20
2023-01-13T01:41:37.835Z,8.20
2023-01-13T01:44:41.606Z,8.20
2023-01-13T01:47:17.216Z,8.20
2023-01-13T01:49:46.048Z,8.20
2023-01-13T01:52:17.887Z,8.20
2023-01-13T01:54:57.428Z,8.20
2023-01-13T01:57:32.936Z,8.20
2023-01-13T02:00:01.261Z,8.10
2023-01-13T02:02:32.076Z,8.20
2023-01-13T02:05:01.883Z,8.20
2023-01-13T02:07:33.191Z,8.20
2023-01-13T02:10:06.322Z,8.20
2023-01-13T02:12:35.133Z,8.20
2023-01-13T02:15:08.219Z,8.10
2023-01-13T02:17:56.552Z,8.10
2023-01-13T02:20:54.170Z,8.10
2023-01-13T02:23:51.457Z,8.10
2023-01-13T02:26:43.288Z,8.10
2023-01-13T02:30:07.753Z,8.00
2023-01-13T02:32:38.927Z,8.00
2023-01-13T02:35:18.513Z,8.00
2023-01-13T02:37:46.147Z,8.00
2023-01-13T02:40:24.685Z,8.00
2023-01-13T02:43:20.585Z,8.00
2023-01-13T02:45:53.368Z,8.00
2023-01-13T02:48:23.713Z,8.00
2023-01-13T02:51:06.919Z,7.90
2023-01-13T02:53:52.341Z,7.90
2023-01-13T02:56:21.394Z,7.90
2023-01-13T02:58:49.795Z,7.90
2023-01-13T03:01:18.395Z,7.90
2023-01-13T03:03:46.981Z,7.90
2023-01-13T03:06:16.936Z,7.90
2023-01-13T03:09:03.840Z,7.80
2023-01-13T03:11:39.978Z,7.80
2023-01-13T03:14:24.385Z,7.80
2023-01-13T03:17:26.044Z,7.80
2023-01-13T03:20:14.617Z,7.80
2023-01-13T03:22:57.299Z,7.80
2023-01-13T03:25:32.944Z,7.70
2023-01-13T03:28:04.315Z,7.80
2023-01-13T03:30:37.968Z,7.80
2023-01-13T03:33:11.710Z,7.80
2023-01-13T03:35:43.554Z,7.80
2023-01-13T03:38:31.825Z,7.80
2023-01-13T03:41:03.622Z,7.80
2023-01-13T03:44:00.572Z,7.70
2023-01-13T03:46:53.123Z,7.70
2023-01-13T03:49:24.189Z,7.70
2023-01-13T03:51:57.229Z,7.70
2023-01-13T03:54:28.074Z,7.60
2023-01-13T03:57:00.019Z,7.60
2023-01-13T03:59:33.074Z,7.60
2023-01-13T04:02:26.202Z,7.60
2023-01-13T04:04:59.939Z,7.60
2023-01-13T04:07:45.734Z,7.60
2023-01-13T04:10:17.391Z,7.60
2023-01-13T04:13:02.829Z,7.60
2023-01-13T04:15:36.911Z,7.60
2023-01-13T04:18:24.197Z,7.60
2023-01-13T04:20:53.525Z,7.60
2023-01-13T04:23:21.788Z,7.60
2023-01-13T04:25:49.396Z,7.60
2023-01-13T04:28:20.545Z,7.50
2023-01-13T04:30:48.088Z,7.50
2023-01-13T04:33:17.319Z,7.50
2023-01-13T04:35:47.893Z,7.50
2023-01-13T04:38:17.299Z,7.50
2023-01-13T04:40:44.461Z,7.50
2023-01-13T04:43:11.634Z,7.50
2023-01-13T04:45:39.076Z,7.50
2023-01-13T04:48:06.475Z,7.50
2023-01-13T04:50:33.786Z,7.40
2023-01-13T04:53:01.379Z,7.50
2023-01-13T04:55:28.910Z,7.40
2023-01-13T04:57:55.996Z,7.40
2023-01-13T05:00:23.957Z,7.40
2023-01-13T05:02:51.849Z,7.40
2023-01-13T05:05:19.304Z,7.40
2023-01-13T05:07:46.479Z,7.40
2023-01-13T05:10:13.894Z,7.40
2023-01-13T05:12:59.901Z,7.40
2023-01-13T05:15:45.465Z,7.40
2023-01-13T05:18:13.087Z,7.40
2023-01-13T05:20:44.941Z,7.40
2023-01-13T05:23:30.701Z,7.40
2023-01-13T05:25:57.783Z,7.40
2023-01-13T05:28:24.855Z,7.30
2023-01-13T05:30:52.672Z,7.30
2023-01-13T05:33:23.101Z,7.30
2023-01-13T05:35:50.313Z,7.30
2023-01-13T05:38:18.665Z,7.30
2023-01-13T05:41:04.539Z,7.30
2023-01-13T05:43:34.960Z,7.30
2023-01-13T05:46:08.231Z,7.30
2023-01-13T05:48:40.667Z,7.20
2023-01-13T05:51:10.033Z,7.30
2023-01-13T05:53:37.431Z,7.20
2023-01-13T05:56:05.949Z,7.30
2023-01-13T05:58:33.451Z,7.30
2023-01-13T06:01:02.885Z,7.20
2023-01-13T06:03:30.026Z,7.30
2023-01-13T06:05:59.502Z,7.20
2023-01-13T06:08:26.790Z,7.20
2023-01-13T06:10:56.351Z,7.20
2023-01-13T06:13:29.328Z,7.20
2023-01-13T06:15:59.124Z,7.20
2023-01-13T06:18:29.168Z,7.20
2023-01-13T06:20:56.561Z,7.20
2023-01-13T06:23:24.163Z,7.10
2023-01-13T06:26:07.859Z,7.10
2023-01-13T06:28:35.055Z,7.10
2023-01-13T06:31:06.011Z,7.10
2023-01-13T06:33:41.139Z,7.10
2023-01-13T06:36:14.546Z,7.10
2023-01-13T06:38:45.457Z,7.10
2023-01-13T06:41:12.630Z,7.10
2023-01-13T06:43:41.037Z,7.10
2023-01-13T06:46:08.297Z,7.10
2023-01-13T06:48:36.170Z,7.00
2023-01-13T06:51:04.959Z,7.00
2023-01-13T06:53:32.322Z,7.00
2023-01-13T06:55:59.452Z,7.00
2023-01-13T06:58:27.066Z,7.00
2023-01-13T07:00:54.285Z,7.00
2023-01-13T07:03:21.642Z,7.00
2023-01-13T07:05:54.363Z,7.00
2023-01-13T07:08:22.639Z,7.00
2023-01-13T07:10:49.774Z,7.00
2023-01-13T07:13:35.407Z,7.00
2023-01-13T07:16:05.196Z,7.00
2023-01-13T07:18:33.539Z,7.00
2023-01-13T07:21:07.790Z,7.00
2023-01-13T07:23:37.951Z,7.00
2023-01-13T07:26:05.187Z,7.00
2023-01-13T07:28:35.168Z,7.00
2023-01-13T07:31:02.306Z,7.00
2023-01-13T07:33:33.172Z,7.00
2023-01-13T07:36:05.009Z,7.00
2023-01-13T07:38:35.467Z,7.00
2023-01-13T07:41:21.393Z,7.00
2023-01-13T07:43:48.723Z,7.00
2023-01-13T07:46:16.279Z,7.10
2023-01-13T07:48:43.354Z,7.00
2023-01-13T07:51:12.239Z,7.00
2023-01-13T07:53:39.468Z,7.10
2023-01-13T07:56:07.720Z,7.10
2023-01-13T07:58:36.989Z,7.10
2023-01-13T08:01:12.521Z,7.10
2023-01-13T08:03:40.641Z,7.10
2023-01-13T08:06:08.123Z,7.10
2023-01-13T08:08:35.397Z,7.10
2023-01-13T08:11:05.662Z,7.10
2023-01-13T08:13:33.166Z,7.10
2023-01-13T08:16:06.057Z,7.10
2023-01-13T08:18:34.359Z,7.10
2023-01-13T08:21:13.212Z,7.10
2023-01-13T08:23:41.771Z,7.10
2023-01-13T08:26:12.268Z,7.00
2023-01-13T08:28:42.357Z,7.00
2023-01-13T08:31:13.177Z,7.00
2023-01-13T08:33:40.501Z,7.00
2023-01-13T08:36:09.801Z,7.00
2023-01-13T08:38:37.837Z,7.00
2023-01-13T08:41:13.551Z,7.00
2023-01-13T08:43:43.656Z,7.00
2023-01-13T08:46:10.842Z,7.10
2023-01-13T08:48:38.090Z,7.00
2023-01-13T08:51:07.493Z,7.00
2023-01-13T08:53:34.875Z,7.00
2023-01-13T08:56:01.954Z,7.00
2023-01-13T08:58:29.252Z,7.00
2023-01-13T09:00:57.622Z,7.00
2023-01-13T09:03:24.829Z,7.00
2023-01-13T09:05:54.265Z,7.00
2023-01-13T09:08:24.737Z,7.00
2023-01-13T09:10:51.906Z,7.00
2023-01-13T09:13:20.412Z,7.00
2023-01-13T09:15:47.662Z,7.00
2023-01-13T09:18:17.272Z,7.00
2023-01-13T09:20:44.853Z,7.00
2023-01-13T09:23:11.949Z,7.00
2023-01-13T09:25:42.106Z,7.00
2023-01-13T09:28:09.362Z,7.00
2023-01-13T09:30:39.491Z,7.00
2023-01-13T09:33:25.287Z,7.00
2023-01-13T09:35:52.527Z,7.00
2023-01-13T09:38:19.576Z,7.00
2023-01-13T09:40:49.450Z,7.00
2023-01-13T09:43:41.050Z,7.00
2023-01-13T09:46:43.363Z,7.00
2023-01-13T09:49:43.002Z,7.00
2023-01-13T09:52:20.288Z,7.00
2023-01-13T09:54:57.924Z,7.00
2023-01-13T09:57:26.845Z,7.00
2023-01-13T09:59:53.937Z,7.00
2023-01-13T10:02:31.402Z,7.00
2023-01-13T10:05:35.763Z,7.00
2023-01-13T10:08:10.849Z,7.00
2023-01-13T10:10:45.531Z,7.00
2023-01-13T10:13:46.658Z,7.00
2023-01-13T10:16:20.392Z,7.00
2023-01-13T10:19:12.588Z,7.00
2023-01-13T10:22:04.857Z,7.10
2023-01-13T10:24:59.833Z,7.10
2023-01-13T10:27:36.782Z,7.00
2023-01-13T10:30:21.570Z,7.00
2023-01-13T10:33:12.038Z,7.10
2023-01-13T10:36:01.109Z,7.00
2023-01-13T10:38:37.466Z,7.00
2023-01-13T10:41:17.132Z,7.10
2023-01-13T10:43:58.476Z,7.10
2023-01-13T10:46:25.789Z,7.10
2023-01-13T10:48:55.815Z,7.10
2023-01-13T10:51:25.162Z,7.00
2023-01-13T10:53:57.256Z,7.00
2023-01-13T10:56:28.089Z,7.10
2023-01-13T10:59:16.105Z,7.10
2023-01-13T11:02:24.392Z,7.10
2023-01-13T11:05:00.811Z,7.00
2023-01-13T11:07:33.009Z,7.00
2023-01-13T11:10:17.799Z,7.00
2023-01-13T11:12:55.598Z,7.00
2023-01-13T11:15:39.119Z,7.00
2023-01-13T11:18:30.467Z,7.00
2023-01-13T11:20:58.810Z,7.00
2023-01-13T11:23:48.568Z,7.00
2023-01-13T11:26:22.408Z,7.00
2023-01-13T11:29:13.881Z,7.00
2023-01-13T11:31:47.454Z,7.00
2023-01-13T11:34:36.514Z,7.00
2023-01-13T11:37:19.041Z,7.00
2023-01-13T11:40:17.412Z,7.00
2023-01-13T11:42:48.310Z,7.00
2023-01-13T11:45:30.115Z,7.00
2023-01-13T11:48:00.446Z,7.00
2023-01-13T11:50:42.529Z,7.00
2023-01-13T11:53:44.293Z,7.00
2023-01-13T11:56:37.127Z,7.00
2023-01-13T11:59:19.134Z,7.00
2023-01-13T12:01:58.065Z,7.00
2023-01-13T12:04:25.323Z,7.00
2023-01-13T12:06:58.403Z,7.00
2023-01-13T12:10:00.693Z,7.00
2023-01-13T12:12:55.869Z,7.00
2023-01-13T12:15:26.075Z,7.00
2023-01-13T12:18:18.965Z,7.00
2023-01-13T12:21:12.565Z,7.00
2023-01-13T12:23:47.125Z,7.00
2023-01-13T12:26:16.845Z,7.00
2023-01-13T12:29:14.810Z,7.00
2023-01-13T12:31:43.254Z,7.00
2023-01-13T12:34:16.116Z,7.00
2023-01-13T12:37:20.503Z,7.00
2023-01-13T12:40:19.324Z,7.00
2023-01-13T12:43:04.943Z,7.10
2023-01-13T12:45:33.573Z,7.00
2023-01-13T12:48:01.518Z,7.10
2023-01-13T12:50:40.775Z,7.00
2023-01-13T12:53:31.098Z,7.10
2023-01-13T12:56:21.989Z,7.10
2023-01-13T12:58:49.147Z,7.00
2023-01-13T13:01:16.613Z,7.00
2023-01-13T13:04:13.691Z,7.00
2023-01-13T13:06:48.545Z,7.00
2023-01-13T13:09:35.685Z,7.00
2023-01-13T13:12:50.319Z,7.00
2023-01-13T13:15:26.354Z,7.10
2023-01-13T13:17:59.884Z,7.10
2023-01-13T13:20:54.009Z,7.00
2023-01-13T13:23:33.326Z,7.00
2023-01-13T13:26:21.427Z,7.10
2023-01-13T13:29:04.666Z,7.10
2023-01-13T13:31:49.927Z,7.10
2023-01-13T13:34:34.805Z,7.10
2023-01-13T13:37:56.364Z,7.10
2023-01-13T13:40:43.021Z,7.10
2023-01-13T13:43:32.752Z,7.10
2023-01-13T13:46:18.601Z,7.10
2023-01-13T13:48:54.269Z,7.10
2023-01-13T13:51:39.193Z,7.10
2023-01-13T13:54:15.248Z,7.10
2023-01-13T13:56:47.762Z,7.10
2023-01-13T13:59:25.343Z,7.10
2023-01-13T14:02:02.264Z,7.10
2023-01-13T14:04:37.089Z,7.10
2023-01-13T14:07:18.476Z,7.10
2023-01-13T14:09:53.812Z,7.10
2023-01-13T14:12:24.250Z,7.10
2023-01-13T14:14:51.989Z,7.10
2023-01-13T14:17:29.951Z,7.10
2023-01-13T14:20:00.604Z,7.20
2023-01-13T14:22:28.120Z,7.20
2023-01-13T14:24:58.642Z,7.20
2023-01-13T14:27:27.869Z,7.10
2023-01-13T14:29:58.303Z,7.10
2023-01-13T14:32:36.851Z,7.10
2023-01-13T14:35:07.369Z,7.10
2023-01-13T14:37:41.870Z,7.10
2023-01-13T14:40:39.427Z,7.10
2023-01-13T14:43:16.173Z,7.00
2023-01-13T14:46:00.936Z,7.00
2023-01-13T14:48:35.666Z,7.00
2023-01-13T14:51:06.766Z,7.00
2023-01-13T14:53:39.480Z,7.00
2023-01-13T14:56:44.284Z,7.00
2023-01-13T14:59:34.050Z,7.00
2023-01-13T15:02:22.118Z,7.00
2023-01-13T15:04:51.008Z,7.00
2023-01-13T15:07:27.318Z,7.00
2023-01-13T15:10:00.369Z,7.00
2023-01-13T15:12:39.539Z,7.00
2023-01-13T15:15:37.927Z,7.00
2023-01-13T15:18:18.410Z,7.00
2023-01-13T15:20:46.206Z,7.00
2023-01-13T15:23:13.291Z,7.00
2023-01-13T15:25:43.636Z,7.00
2023-01-13T15:28:25.067Z,7.00
2023-01-13T15:30:54.574Z,7.00
2023-01-13T15:33:22.686Z,7.00
2023-01-13T15:35:51.988Z,7.00
2023-01-13T15:38:21.535Z,7.00
2023-01-13T15:40:49.982Z,7.00
2023-01-13T15:43:38.251Z,7.00
2023-01-13T15:46:33.167Z,7.00
2023-01-13T15:49:21.037Z,7.00
2023-01-13T15:51:49.387Z,7.00
2023-01-13T15:54:22.831Z,7.00
2023-01-13T15:56:50.372Z,7.00
2023-01-13T15:59:25.164Z,7.00
2023-01-13T16:01:52.602Z,7.00
2023-01-13T16:04:19.696Z,7.00
2023-01-13T16:06:47.664Z,7.00
2023-01-13T16:09:17.004Z,7.00
2023-01-13T16:11:44.203Z,7.00
2023-01-13T16:14:11.355Z,7.00
2023-01-13T16:16:38.533Z,6.90
2023-01-13T16:19:08.001Z,6.90
2023-01-13T16:21:35.027Z,6.90
2023-01-13T16:24:02.073Z,6.90
2023-01-13T16:26:30.201Z,6.90
2023-01-13T16:28:58.505Z,6.90
2023-01-13T16:31:32.318Z,6.90
2023-01-13T16:34:03.720Z,6.90
2023-01-13T16:36:34.227Z,6.90
2023-01-13T16:39:02.294Z,6.90
2023-01-13T16:41:29.498Z,6.90
2023-01-13T16:43:56.889Z,7.00
2023-01-13T16:46:27.729Z,6.90
2023-01-13T16:49:04.116Z,7.00
2023-01-13T16:51:31.559Z,7.00
2023-01-13T16:53:59.068Z,7.00
2023-01-13T16:56:28.396Z,6.90
2023-01-13T16:58:57.845Z,6.90
2023-01-13T17:01:28.295Z,7.00
2023-01-13T17:03:56.771Z,7.00
2023-01-13T17:06:27.054Z,7.00
2023-01-13T17:08:54.203Z,7.00
2023-01-13T17:11:24.507Z,7.00
2023-01-13T17:13:51.776Z,6.90
2023-01-13T17:16:21.747Z,7.00
2023-01-13T17:18:51.694Z,7.00
2023-01-13T17:21:18.982Z,7.00
2023-01-13T17:23:46.095Z,7.00
2023-01-13T17:26:32.412Z,7.00
2023-01-13T17:29:00.817Z,7.00
2023-01-13T17:31:29.071Z,7.00
2023-01-13T17:33:56.527Z,7.00
2023-01-13T17:36:25.697Z,7.00
2023-01-13T17:38:53.115Z,7.00
2023-01-13T17:41:20.149Z,7.00
2023-01-13T17:43:47.524Z,7.00
2023-01-13T17:46:18.587Z,7.00
2023-01-13T17:48:46.950Z,7.10
2023-01-13T17:51:16.025Z,7.10
2023-01-13T17:53:45.542Z,7.20
2023-01-13T17:56:15.077Z,7.20
2023-01-13T18:01:30.893Z,7.20
2023-01-13T18:03:58.013Z,7.20
2023-01-13T18:06:25.224Z,7.20
2023-01-13T18:08:52.522Z,7.20
2023-01-13T18:11:24.088Z,7.30
2023-01-13T18:13:59.678Z,7.30
2023-01-13T18:16:31.804Z,7.30
2023-01-13T18:19:18.411Z,7.30
2023-01-13T18:22:04.792Z,7.30
2023-01-13T18:24:50.228Z,7.30
2023-01-13T18:27:19.638Z,7.30
2023-01-13T18:29:47.415Z,7.40
2023-01-13T18:32:18.321Z,7.30
2023-01-13T18:34:45.612Z,7.40
2023-01-13T18:37:14.751Z,7.30
2023-01-13T18:39:42.072Z,7.40
2023-01-13T18:42:29.389Z,7.40
2023-01-13T18:44:57.863Z,7.30
2023-01-13T18:47:26.303Z,7.40
2023-01-13T18:49:53.422Z,7.40
2023-01-13T18:52:20.787Z,7.40
2023-01-13T18:54:48.227Z,7.30
2023-01-13T18:57:16.135Z,7.40
2023-01-13T18:59:43.222Z,7.30
2023-01-13T19:02:18.770Z,7.30
2023-01-13T19:04:46.186Z,7.40
2023-01-13T19:07:21.889Z,7.30
2023-01-13T19:09:52.145Z,7.40
2023-01-13T19:12:28.320Z,7.40
2023-01-13T19:14:56.307Z,7.40
2023-01-13T19:17:25.507Z,7.40
2023-01-13T19:19:55.287Z,7.40
2023-01-13T19:22:29.877Z,7.40
2023-01-13T19:24:58.295Z,7.40
2023-01-13T19:27:27.939Z,7.40
2023-01-13T19:29:58.162Z,7.40
2023-01-13T19:32:25.681Z,7.40
2023-01-13T19:34:55.016Z,7.40
2023-01-13T19:37:22.111Z,7.40
2023-01-13T19:39:49.231Z,7.40
2023-01-13T19:42:34.586Z,7.40
2023-01-13T19:45:20.107Z,7.40
2023-01-13T19:47:47.196Z,7.40
2023-01-13T19:50:14.401Z,7.40
2023-01-13T19:52:42.765Z,7.40
2023-01-13T19:55:12.425Z,7.40
2023-01-13T19:57:40.878Z,7.40
2023-01-13T20:00:09.652Z,7.40
2023-01-13T20:02:44.985Z,7.40
2023-01-13T20:05:17.870Z,7.40
2023-01-13T20:07:45.023Z,7.40
2023-01-13T20:10:13.495Z,7.40
2023-01-13T20:12:41.757Z,7.40
2023-01-13T20:15:09.828Z,7.40
2023-01-13T20:17:36.932Z,7.40
2023-01-13T20:20:08.097Z,7.40
2023-01-13T20:22:37.481Z,7.30
2023-01-13T20:25:04.839Z,7.40
2023-01-13T20:27:31.977Z,7.40
2023-01-13T20:29:59.233Z,7.40
2023-01-13T20:32:26.416Z,7.40
2023-01-13T20:34:53.501Z,7.30
2023-01-13T20:37:20.563Z,7.30
2023-01-13T20:39:48.292Z,7.30
2023-01-13T20:42:30.724Z,7.40
2023-01-13T20:44:59.842Z,7.30
2023-01-13T20:47:28.247Z,7.30
2023-01-13T20:49:55.273Z,7.30
2023-01-13T20:52:22.860Z,7.30
2023-01-13T20:54:49.964Z,7.40
2023-01-13T20:57:19.510Z,7.30
2023-01-13T20:59:46.636Z,7.30
2023-01-13T21:02:15.779Z,7.30
2023-01-13T21:04:43.501Z,7.30
2023-01-13T21:07:11.148Z,7.30
2023-01-13T21:09:38.284Z,7.30
2023-01-13T21:12:24.848Z,7.30
2023-01-13T21:15:10.346Z,7.30
2023-01-13T21:17:56.107Z,7.30
2023-01-13T21:20:23.414Z,7.20
2023-01-13T21:22:50.501Z,7.20
2023-01-13T21:25:18.713Z,7.20
2023-01-13T21:27:46.177Z,7.20
2023-01-13T21:30:15.150Z,7.30
2023-01-13T21:32:43.773Z,7.20
2023-01-13T21:35:11.770Z,7.30
2023-01-13T21:37:41.034Z,7.30
2023-01-13T21:40:12.094Z,7.20
2023-01-13T21:42:57.866Z,7.20
2023-01-13T21:45:43.667Z,7.20
2023-01-13T21:48:10.811Z,7.20
2023-01-13T21:50:38.909Z,7.20
2023-01-13T21:53:09.812Z,7.20
2023-01-13T21:55:37.624Z,7.20
2023-01-13T21:58:14.670Z,7.20
2023-01-13T22:00:43.335Z,7.20
2023-01-13T22:03:12.426Z,7.20
2023-01-13T22:05:40.092Z,7.20
2023-01-13T22:08:07.741Z,7.20
2023-01-13T22:10:34.885Z,7.20
2023-01-13T22:13:22.886Z,7.20
2023-01-13T22:15:50.211Z,7.20
2023-01-13T22:18:18.515Z,7.20
2023-01-13T22:20:46.291Z,7.20
2023-01-13T22:23:13.721Z,7.20
2023-01-13T22:25:41.184Z,7.20
2023-01-13T22:28:09.417Z,7.10
2023-01-13T22:30:36.890Z,7.20
2023-01-13T22:33:04.142Z,7.10
2023-01-13T22:35:31.197Z,7.10
2023-01-13T22:38:00.149Z,7.10
2023-01-13T22:40:27.210Z,7.10
2023-01-13T22:42:54.248Z,7.10
2023-01-13T22:45:21.432Z,7.10
2023-01-13T22:47:49.690Z,7.20
2023-01-13T22:50:20.781Z,7.10
2023-01-13T22:52:47.908Z,7.10
2023-01-13T22:55:15.071Z,7.10
2023-01-13T22:57:47.715Z,7.10
2023-01-13T23:00:19.136Z,7.10
2023-01-13T23:02:46.645Z,7.10
2023-01-13T23:05:14.055Z,7.10
2023-01-13T23:07:44.055Z,7.10
2023-01-13T23:10:11.598Z,7.10
2023-01-13T23:12:38.707Z,7.10
2023-01-13T23:15:06.136Z,7.10
2023-01-13T23:17:33.258Z,7.00
2023-01-13T23:20:00.282Z,7.00
2023-01-13T23:22:27.327Z,7.00
2023-01-13T23:24:54.356Z,7.10
2023-01-13T23:27:21.446Z,7.10
2023-01-13T23:29:49.207Z,7.00
2023-01-13T23:32:16.173Z,7.00
2023-01-13T23:34:43.211Z,7.00
2023-01-13T23:37:10.232Z,7.00
2023-01-13T23:39:37.227Z,7.00
2023-01-13T23:42:04.300Z,7.00
2023-01-13T23:44:31.286Z,7.00
2023-01-13T23:46:58.519Z,7.00
2023-01-13T23:49:25.533Z,7.00
2023-01-13T23:51:54.080Z,7.00
2023-01-13T23:54:21.324Z,7.00
2023-01-13T23:56:51.095Z,7.00
2023-01-13T23:59:21.814Z,7.00
